CYPX

Puvirnituq Airport

Puvirnituq, Quebec, Canada
METAR CYPX 191400Z AUTO 10003KT 070V140 9SM CLR M34/M38 A2982 RMK SLP105
Observed Flight Rules
Jan-19 @ 14:00 UTC (an hour ago) Visual Flight Rules
Wind Visibility Clouds
100° at 3 knots 9 miles
  • Clear skies
Temperatures Readings
Current -34°C / -29°F
Dewpoint -38°C / -36°F
Humidity 67%
Altimeter 29.82" Hg
Pressure 1010.5 hPa
Elevation 23
METAR CYPX 191400Z AUTO 10003KT 070V140 9SM CLR M34/M38 A2982 RMK SLP105
Observed Flight Rules
Jan-19 @ 14:00 UTC
(an hour ago)
VFR
Wind Visibility
100° at 3 knots 9 miles
Clouds
  • Clear skies
Temperature Dewpoint
-34°C / -29°F -38°C / -36°F
Humidity Altimeter Pressure
67% 29.82" Hg 1010.5 hPa